Time;durP1;ratioP1;P1;durP2;ratioP2;P2;SDS_P1;SDS_P2;PMS_P1;PMS_P2;Temp;Humidity;BMP_temperature;BMP_pressure;BME280_temperature;BME280_humidity;BME280_pressure;Samples;Min_cycle;Max_cycle;Signal;HPM_P1;HPM_P2
2021/09/26 00:00:41;;;;;;;3.63;1.40;;;;;;;;;;5085305;28;20052;-86
2021/09/26 00:03:07;;;;;;;2.20;1.10;;;;;;;;;;5079049;28;20048;-85
2021/09/26 00:05:34;;;;;;;2.90;1.15;;;;;;;;;;5069021;28;20643;-84
2021/09/26 00:08:00;;;;;;;3.05;1.35;;;;;;;;;;5081488;28;20079;-85
2021/09/26 00:10:27;;;;;;;2.85;1.10;;;;;;;;;;5078757;28;20052;-85
2021/09/26 00:12:53;;;;;;;2.30;1.15;;;;;;;;;;5087193;28;20064;-88
2021/09/26 00:15:21;;;;;;;1.67;0.90;;;;;;;;;;5082009;28;20080;-87
2021/09/26 00:17:48;;;;;;;3.08;1.20;;;;;;;;;;5086933;28;20056;-88
2021/09/26 00:20:15;;;;;;;2.17;1.10;;;;;;;;;;5066703;28;20064;-88
2021/09/26 00:22:42;;;;;;;2.47;0.88;;;;;;;;;;5077253;28;20059;-89
2021/09/26 00:25:09;;;;;;;2.53;1.33;;;;;;;;;;5085262;28;20098;-88
2021/09/26 00:27:35;;;;;;;2.42;1.23;;;;;;;;;;5088286;28;20105;-87
2021/09/26 00:30:02;;;;;;;4.28;1.25;;;;;;;;;;5068642;28;20132;-88
2021/09/26 00:32:29;;;;;;;3.95;1.50;;;;;;;;;;5071142;28;20577;-86
2021/09/26 00:34:55;;;;;;;2.67;1.10;;;;;;;;;;5084730;28;20070;-86
2021/09/26 00:37:22;;;;;;;5.10;1.52;;;;;;;;;;5084657;28;20121;-87
2021/09/26 00:39:48;;;;;;;4.65;1.25;;;;;;;;;;5087972;28;20768;-85
2021/09/26 00:42:15;;;;;;;4.28;1.27;;;;;;;;;;5090047;28;20125;-84
2021/09/26 00:44:41;;;;;;;2.40;1.05;;;;;;;;;;5090394;28;20059;-86
2021/09/26 00:47:08;;;;;;;5.10;1.25;;;;;;;;;;5089721;28;20079;-86
2021/09/26 00:49:34;;;;;;;2.45;0.98;;;;;;;;;;5088453;28;20063;-87
2021/09/26 00:52:00;;;;;;;4.10;1.33;;;;;;;;;;5083164;28;20067;-88
2021/09/26 00:54:27;;;;;;;2.05;0.88;;;;;;;;;;5068095;28;20062;-86
2021/09/26 00:56:53;;;;;;;4.47;1.17;;;;;;;;;;5079392;28;20058;-85
2021/09/26 00:59:20;;;;;;;2.35;1.00;;;;;;;;;;5070279;28;20067;-85
2021/09/26 01:01:47;;;;;;;2.17;1.00;;;;;;;;;;5087647;28;20044;-86
2021/09/26 01:04:15;;;;;;;1.77;1.00;;;;;;;;;;5088941;28;20060;-86
2021/09/26 01:06:44;;;;;;;3.03;1.10;;;;;;;;;;5067417;28;20103;-85
2021/09/26 01:09:16;;;;;;;2.45;1.00;;;;;;;;;;5082623;28;20064;-86
2021/09/26 01:12:01;;;;;;;3.22;1.10;;;;;;;;;;5085410;28;20568;-86
2021/09/26 01:14:39;;;;;;;3.08;1.30;;;;;;;;;;5087120;27;20549;-86
2021/09/26 01:17:06;;;;;;;3.55;0.95;;;;;;;;;;5091956;28;20059;-86
2021/09/26 01:19:40;;;;;;;3.72;1.40;;;;;;;;;;5085049;28;20063;-87
2021/09/26 01:22:16;;;;;;;2.38;1.05;;;;;;;;;;5088244;28;20771;-87
2021/09/26 01:24:55;;;;;;;1.95;0.73;;;;;;;;;;5083651;28;20042;-88
2021/09/26 01:27:40;;;;;;;1.85;0.90;;;;;;;;;;5083413;28;20124;-89
2021/09/26 01:30:17;;;;;;;2.35;1.20;;;;;;;;;;5087395;28;20058;-87
2021/09/26 01:32:53;;;;;;;3.47;1.30;;;;;;;;;;5086841;28;20117;-86
2021/09/26 01:35:21;;;;;;;4.10;1.20;;;;;;;;;;5083199;28;20028;-86
2021/09/26 01:37:54;;;;;;;2.65;0.90;;;;;;;;;;5088600;28;20040;-87
2021/09/26 01:40:24;;;;;;;2.20;1.15;;;;;;;;;;5087228;28;20062;-86
2021/09/26 01:43:01;;;;;;;2.60;1.20;;;;;;;;;;5087884;28;20071;-86
2021/09/26 01:45:31;;;;;;;2.67;1.30;;;;;;;;;;5086952;28;20604;-89
2021/09/26 01:48:02;;;;;;;3.38;1.27;;;;;;;;;;5083074;28;20470;-87
2021/09/26 01:50:29;;;;;;;3.00;1.00;;;;;;;;;;5087501;28;20082;-88
2021/09/26 01:52:57;;;;;;;3.67;1.20;;;;;;;;;;5087425;28;20095;-87
2021/09/26 01:55:27;;;;;;;2.08;1.08;;;;;;;;;;5076211;28;20442;-87
2021/09/26 01:57:55;;;;;;;4.20;1.23;;;;;;;;;;5080367;28;20063;-89
2021/09/26 02:00:21;;;;;;;4.47;1.20;;;;;;;;;;5078676;28;20453;-89
2021/09/26 02:02:48;;;;;;;4.07;1.38;;;;;;;;;;5080179;28;20051;-89
2021/09/26 02:05:17;;;;;;;3.08;1.10;;;;;;;;;;5085791;28;20067;-89
2021/09/26 02:07:46;;;;;;;4.05;1.10;;;;;;;;;;5072252;28;20079;-89
2021/09/26 02:10:13;;;;;;;2.03;1.05;;;;;;;;;;5073818;28;20033;-78
2021/09/26 02:12:39;;;;;;;3.40;1.13;;;;;;;;;;5077598;28;20126;-89
2021/09/26 02:15:07;;;;;;;2.97;1.20;;;;;;;;;;5089178;28;20148;-88
2021/09/26 02:17:34;;;;;;;3.85;1.23;;;;;;;;;;5086991;28;20063;-88
2021/09/26 02:20:02;;;;;;;3.15;1.10;;;;;;;;;;5087687;28;20056;-87
2021/09/26 02:22:29;;;;;;;2.33;1.10;;;;;;;;;;5087348;28;20121;-87
2021/09/26 02:24:56;;;;;;;2.97;1.20;;;;;;;;;;5085294;28;20075;-86
2021/09/26 02:27:22;;;;;;;3.28;1.02;;;;;;;;;;5074889;28;20068;-86
2021/09/26 02:29:49;;;;;;;2.70;1.00;;;;;;;;;;5083745;28;20067;-84
2021/09/26 02:32:15;;;;;;;2.22;1.00;;;;;;;;;;5087562;28;20091;-85
2021/09/26 02:34:41;;;;;;;2.88;1.08;;;;;;;;;;5085150;28;20520;-85
2021/09/26 02:37:08;;;;;;;5.22;1.35;;;;;;;;;;5083989;28;20056;-86
2021/09/26 02:39:34;;;;;;;3.85;1.10;;;;;;;;;;5085225;28;20052;-87
2021/09/26 02:42:18;;;;;;;3.03;1.20;;;;;;;;;;5087493;28;20020;-88
2021/09/26 02:44:52;;;;;;;3.53;1.20;;;;;;;;;;5085627;28;20625;-89
2021/09/26 02:47:20;;;;;;;3.55;0.90;;;;;;;;;;5077041;28;20056;-88
2021/09/26 02:49:47;;;;;;;3.78;1.02;;;;;;;;;;5070374;28;20071;-88
2021/09/26 02:52:13;;;;;;;4.80;1.33;;;;;;;;;;5069011;28;20396;-87
2021/09/26 02:54:41;;;;;;;4.10;1.30;;;;;;;;;;5082137;28;20075;-87
2021/09/26 02:57:09;;;;;;;2.97;1.10;;;;;;;;;;5082614;28;20051;-86
2021/09/26 02:59:36;;;;;;;3.78;1.05;;;;;;;;;;5083205;28;20056;-86
2021/09/26 03:02:03;;;;;;;5.82;1.42;;;;;;;;;;5084979;28;20072;-87
2021/09/26 03:04:29;;;;;;;2.08;1.00;;;;;;;;;;5083136;28;20510;-88
2021/09/26 03:06:56;;;;;;;3.30;1.20;;;;;;;;;;5085633;28;20079;-86
2021/09/26 03:09:23;;;;;;;2.20;1.00;;;;;;;;;;5085807;28;20067;-86
2021/09/26 03:11:50;;;;;;;2.80;0.85;;;;;;;;;;5088218;28;20062;-87
2021/09/26 03:14:17;;;;;;;3.45;1.05;;;;;;;;;;5087047;28;20130;-86
2021/09/26 03:16:43;;;;;;;4.28;1.08;;;;;;;;;;5086336;28;20441;-86
2021/09/26 03:19:09;;;;;;;1.98;0.95;;;;;;;;;;5080407;28;20472;-87
2021/09/26 03:21:36;;;;;;;2.85;1.08;;;;;;;;;;5083246;28;20071;-86
2021/09/26 03:24:02;;;;;;;2.50;1.13;;;;;;;;;;5084242;28;20071;-86
2021/09/26 03:26:29;;;;;;;2.95;0.90;;;;;;;;;;5082640;28;20063;-86
2021/09/26 03:28:55;;;;;;;2.10;0.80;;;;;;;;;;5088083;28;20074;-86
2021/09/26 03:31:23;;;;;;;2.58;1.10;;;;;;;;;;5086293;28;20492;-87
2021/09/26 03:33:53;;;;;;;3.83;1.20;;;;;;;;;;5081358;28;20048;-87
2021/09/26 03:36:20;;;;;;;4.82;1.00;;;;;;;;;;5081102;28;20442;-87
2021/09/26 03:38:47;;;;;;;2.00;1.02;;;;;;;;;;5084628;28;20036;-88
2021/09/26 03:41:13;;;;;;;2.60;1.02;;;;;;;;;;5081009;28;20093;-87
2021/09/26 03:43:40;;;;;;;2.78;1.10;;;;;;;;;;5087267;28;20065;-87
2021/09/26 03:46:06;;;;;;;1.90;0.82;;;;;;;;;;5078597;28;20129;-88
2021/09/26 03:48:33;;;;;;;2.38;1.17;;;;;;;;;;5084573;28;20067;-88
2021/09/26 03:50:59;;;;;;;2.95;1.10;;;;;;;;;;5086403;28;20058;-88
2021/09/26 03:53:26;;;;;;;1.70;0.88;;;;;;;;;;5084580;28;20072;-88
2021/09/26 03:55:52;;;;;;;3.45;1.15;;;;;;;;;;5085773;28;20557;-84
2021/09/26 03:58:19;;;;;;;2.13;1.00;;;;;;;;;;5067572;28;20119;-84
2021/09/26 04:00:45;;;;;;;3.08;1.10;;;;;;;;;;5067880;28;20055;-89
2021/09/26 04:03:11;;;;;;;3.67;1.20;;;;;;;;;;5068569;28;20118;-89
2021/09/26 04:05:38;;;;;;;2.17;0.75;;;;;;;;;;5070699;28;20495;-87
2021/09/26 04:08:04;;;;;;;2.30;0.90;;;;;;;;;;5066057;28;20472;-87
2021/09/26 04:10:31;;;;;;;2.78;1.15;;;;;;;;;;5077539;28;20072;-87
2021/09/26 04:12:57;;;;;;;3.13;1.05;;;;;;;;;;5065106;28;20571;-87
2021/09/26 04:15:23;;;;;;;1.77;0.90;;;;;;;;;;5063117;28;20073;-87
2021/09/26 04:17:50;;;;;;;2.92;0.90;;;;;;;;;;5065346;28;20075;-87
2021/09/26 04:20:16;;;;;;;3.15;1.00;;;;;;;;;;5070400;28;20055;-87
2021/09/26 04:22:42;;;;;;;2.08;0.98;;;;;;;;;;5071046;28;20056;-87
2021/09/26 04:25:09;;;;;;;3.47;1.00;;;;;;;;;;5077331;28;20036;-88
2021/09/26 04:27:36;;;;;;;2.75;1.00;;;;;;;;;;5065205;28;20500;-87
2021/09/26 04:30:03;;;;;;;3.17;0.98;;;;;;;;;;5065633;28;20056;-87
2021/09/26 04:32:30;;;;;;;1.30;0.80;;;;;;;;;;5083466;28;20435;-86
2021/09/26 04:34:56;;;;;;;2.85;1.10;;;;;;;;;;5085118;28;20790;-87
2021/09/26 04:37:23;;;;;;;3.67;1.10;;;;;;;;;;5082832;28;20068;-87
2021/09/26 04:39:49;;;;;;;2.70;0.80;;;;;;;;;;5083741;28;20036;-88
2021/09/26 04:42:15;;;;;;;2.67;1.00;;;;;;;;;;5085363;28;20244;-88
2021/09/26 04:44:42;;;;;;;1.95;0.98;;;;;;;;;;5085921;28;20044;-88
2021/09/26 04:47:08;;;;;;;1.90;0.68;;;;;;;;;;5085696;28;20452;-87
2021/09/26 04:49:35;;;;;;;3.30;1.10;;;;;;;;;;5083671;28;20051;-86
2021/09/26 04:52:01;;;;;;;2.60;0.90;;;;;;;;;;5082714;28;20056;-86
2021/09/26 04:54:28;;;;;;;2.03;0.90;;;;;;;;;;5066611;28;20059;-89
2021/09/26 04:56:54;;;;;;;3.45;1.00;;;;;;;;;;5078876;28;20032;-89
2021/09/26 04:59:21;;;;;;;2.55;0.90;;;;;;;;;;5084403;28;20551;-88
2021/09/26 05:01:48;;;;;;;2.65;0.82;;;;;;;;;;5088583;28;20449;-89
2021/09/26 05:04:15;;;;;;;2.45;0.95;;;;;;;;;;5088449;28;20067;-87
2021/09/26 05:06:42;;;;;;;3.35;1.00;;;;;;;;;;5087792;28;20132;-87
2021/09/26 05:09:08;;;;;;;3.08;1.00;;;;;;;;;;5085952;28;20497;-86
2021/09/26 05:11:34;;;;;;;3.15;1.08;;;;;;;;;;5083527;28;20064;-89
2021/09/26 05:14:01;;;;;;;1.73;0.73;;;;;;;;;;5089936;28;20074;-88
2021/09/26 05:16:27;;;;;;;2.58;1.02;;;;;;;;;;5088490;28;20495;-86
2021/09/26 05:18:54;;;;;;;2.60;0.90;;;;;;;;;;5087227;28;20585;-87
2021/09/26 05:21:20;;;;;;;2.55;0.88;;;;;;;;;;5077474;28;20064;-85
2021/09/26 05:23:47;;;;;;;2.75;0.70;;;;;;;;;;5082432;28;20477;-86
2021/09/26 05:26:13;;;;;;;3.05;1.15;;;;;;;;;;5074475;28;20028;-79
2021/09/26 05:28:40;;;;;;;2.58;0.70;;;;;;;;;;5072338;28;20059;-87
2021/09/26 05:31:07;;;;;;;1.92;0.73;;;;;;;;;;5074894;28;20129;-87
2021/09/26 05:33:34;;;;;;;3.92;1.10;;;;;;;;;;5089117;28;20068;-88
2021/09/26 05:36:00;;;;;;;2.92;0.88;;;;;;;;;;5087225;28;20033;-90
2021/09/26 05:38:27;;;;;;;2.40;0.90;;;;;;;;;;5080663;28;20063;-89
2021/09/26 05:40:53;;;;;;;2.75;0.90;;;;;;;;;;5090173;28;20071;-87
2021/09/26 05:43:20;;;;;;;1.65;0.77;;;;;;;;;;5089131;28;20056;-87
2021/09/26 05:45:48;;;;;;;2.40;0.88;;;;;;;;;;5089063;28;20463;-87
2021/09/26 05:48:14;;;;;;;3.25;0.90;;;;;;;;;;5085025;28;20064;-86
2021/09/26 05:50:41;;;;;;;1.83;0.70;;;;;;;;;;5088272;28;20024;-88
2021/09/26 05:53:07;;;;;;;3.55;0.80;;;;;;;;;;5084609;28;20063;-89
2021/09/26 05:55:33;;;;;;;2.10;0.90;;;;;;;;;;5086077;28;20071;-90
2021/09/26 05:58:00;;;;;;;2.75;1.00;;;;;;;;;;5084714;28;20036;-87
2021/09/26 06:00:26;;;;;;;1.50;0.70;;;;;;;;;;5083892;28;20064;-87
2021/09/26 06:02:53;;;;;;;2.80;0.75;;;;;;;;;;5083747;28;20079;-87
2021/09/26 06:05:21;;;;;;;2.65;1.00;;;;;;;;;;5083479;28;20063;-88
2021/09/26 06:07:47;;;;;;;3.03;0.80;;;;;;;;;;5086486;28;20091;-86
2021/09/26 06:10:14;;;;;;;1.58;0.85;;;;;;;;;;5085725;28;20067;-83
2021/09/26 06:12:40;;;;;;;1.65;0.60;;;;;;;;;;5088018;28;20063;-87
2021/09/26 06:15:08;;;;;;;3.88;0.80;;;;;;;;;;5083962;28;20553;-87
2021/09/26 06:17:34;;;;;;;2.08;0.82;;;;;;;;;;5084719;28;20059;-87
2021/09/26 06:20:01;;;;;;;2.75;0.82;;;;;;;;;;5085031;28;20063;-88
2021/09/26 06:22:28;;;;;;;2.65;0.82;;;;;;;;;;5083090;28;20558;-88
2021/09/26 06:24:56;;;;;;;3.03;0.82;;;;;;;;;;5083526;28;20072;-88
2021/09/26 06:27:23;;;;;;;2.70;0.80;;;;;;;;;;5084433;28;20072;-88
2021/09/26 06:29:50;;;;;;;1.88;0.75;;;;;;;;;;5083917;28;20036;-87
2021/09/26 06:32:16;;;;;;;1.77;0.80;;;;;;;;;;5083273;28;20036;-86
2021/09/26 06:34:43;;;;;;;1.55;0.80;;;;;;;;;;5074202;28;20032;-87
2021/09/26 06:37:09;;;;;;;2.33;0.82;;;;;;;;;;5087356;28;20536;-87
2021/09/26 06:39:37;;;;;;;1.52;0.77;;;;;;;;;;5085227;28;20113;-88
2021/09/26 06:42:04;;;;;;;1.67;0.50;;;;;;;;;;5083539;28;20059;-87
2021/09/26 06:44:30;;;;;;;2.97;0.80;;;;;;;;;;5083464;28;20067;-87
2021/09/26 06:46:56;;;;;;;3.25;1.00;;;;;;;;;;5085005;28;20070;-88
2021/09/26 06:49:23;;;;;;;2.55;0.70;;;;;;;;;;5090440;28;20067;-88
2021/09/26 06:51:49;;;;;;;3.00;0.85;;;;;;;;;;5087680;28;20428;-88
2021/09/26 06:54:16;;;;;;;2.40;1.00;;;;;;;;;;5081749;28;20032;-86
2021/09/26 06:56:42;;;;;;;3.45;0.88;;;;;;;;;;5087900;28;20133;-88
2021/09/26 06:59:09;;;;;;;2.55;0.88;;;;;;;;;;5083786;28;20105;-87
2021/09/26 07:01:36;;;;;;;2.25;0.90;;;;;;;;;;5079062;28;20096;-87
2021/09/26 07:04:04;;;;;;;2.05;0.85;;;;;;;;;;5089263;28;20075;-88
2021/09/26 07:06:31;;;;;;;2.92;0.88;;;;;;;;;;5088047;28;20085;-87
2021/09/26 07:08:57;;;;;;;3.83;0.80;;;;;;;;;;5085463;28;20048;-87
2021/09/26 07:11:23;;;;;;;2.03;0.70;;;;;;;;;;5076011;28;20060;-87
2021/09/26 07:13:50;;;;;;;2.53;0.70;;;;;;;;;;5088618;28;20063;-89
2021/09/26 07:16:17;;;;;;;1.73;0.70;;;;;;;;;;5085761;28;20060;-88
2021/09/26 07:18:43;;;;;;;1.55;0.65;;;;;;;;;;5087891;28;20112;-88
2021/09/26 07:21:13;;;;;;;1.58;0.60;;;;;;;;;;5087755;28;20059;-88
2021/09/26 07:23:39;;;;;;;2.85;0.88;;;;;;;;;;5078906;28;20055;-88
2021/09/26 07:26:06;;;;;;;3.45;1.02;;;;;;;;;;5085345;28;20040;-87
2021/09/26 07:28:32;;;;;;;2.25;0.70;;;;;;;;;;5086246;28;20063;-87
2021/09/26 07:30:59;;;;;;;1.45;0.80;;;;;;;;;;5082034;28;20037;-88
2021/09/26 07:33:25;;;;;;;1.42;0.63;;;;;;;;;;5077944;28;20059;-88
2021/09/26 07:35:52;;;;;;;2.70;0.65;;;;;;;;;;5086311;28;20077;-88
2021/09/26 07:38:18;;;;;;;2.97;1.00;;;;;;;;;;5087428;28;20055;-87
2021/09/26 07:40:45;;;;;;;2.45;0.85;;;;;;;;;;5088182;28;20070;-88
2021/09/26 07:43:11;;;;;;;1.70;0.70;;;;;;;;;;5082890;28;20112;-88
2021/09/26 07:45:38;;;;;;;4.63;0.90;;;;;;;;;;5083999;28;20047;-88
2021/09/26 07:48:04;;;;;;;1.98;0.68;;;;;;;;;;5082768;28;20068;-88
2021/09/26 07:50:31;;;;;;;2.90;0.93;;;;;;;;;;5073494;28;20045;-88
2021/09/26 07:52:58;;;;;;;1.83;0.90;;;;;;;;;;5086200;28;20064;-88
2021/09/26 07:55:25;;;;;;;1.42;0.70;;;;;;;;;;5066429;28;20113;-88
2021/09/26 07:57:51;;;;;;;2.38;0.70;;;;;;;;;;5080772;28;20071;-88
2021/09/26 08:00:20;;;;;;;2.15;0.80;;;;;;;;;;5083192;28;20662;-87
2021/09/26 08:02:46;;;;;;;2.50;0.80;;;;;;;;;;5084364;28;20109;-90
2021/09/26 08:05:13;;;;;;;2.10;0.80;;;;;;;;;;5085776;28;20068;-86
2021/09/26 08:07:40;;;;;;;1.70;0.80;;;;;;;;;;5085446;28;20060;-86
2021/09/26 08:10:07;;;;;;;1.38;0.70;;;;;;;;;;5061280;28;20068;-87
2021/09/26 08:12:34;;;;;;;2.58;0.65;;;;;;;;;;5061494;28;20091;-88
2021/09/26 08:15:00;;;;;;;0.93;0.55;;;;;;;;;;5059579;28;20456;-88
2021/09/26 08:17:27;;;;;;;3.03;0.75;;;;;;;;;;5072015;28;20707;-87
2021/09/26 08:19:53;;;;;;;2.67;0.73;;;;;;;;;;5071228;28;20063;-87
2021/09/26 08:22:20;;;;;;;2.63;0.70;;;;;;;;;;5064545;28;20069;-88
2021/09/26 08:24:46;;;;;;;1.92;0.70;;;;;;;;;;5081737;28;20441;-88
2021/09/26 08:27:13;;;;;;;2.17;0.57;;;;;;;;;;5064142;28;20076;-88
2021/09/26 08:29:40;;;;;;;2.20;0.80;;;;;;;;;;5080559;28;21456;-88
2021/09/26 08:32:06;;;;;;;1.77;0.70;;;;;;;;;;5082949;28;20110;-88
2021/09/26 08:34:33;;;;;;;1.63;0.73;;;;;;;;;;5081409;28;20745;-87
2021/09/26 08:36:59;;;;;;;2.25;0.60;;;;;;;;;;5086436;28;20059;-88
2021/09/26 08:39:25;;;;;;;3.08;0.70;;;;;;;;;;5072341;28;20057;-84
2021/09/26 08:41:53;;;;;;;1.33;0.55;;;;;;;;;;5069305;28;20052;-82
2021/09/26 08:44:26;;;;;;;2.58;0.70;;;;;;;;;;5068225;28;20052;-83
2021/09/26 08:46:53;;;;;;;2.45;0.80;;;;;;;;;;5069643;28;20117;-82
2021/09/26 08:49:20;;;;;;;2.15;1.00;;;;;;;;;;5070012;28;20083;-81
2021/09/26 08:51:47;;;;;;;3.13;0.75;;;;;;;;;;5051634;28;20689;-81
2021/09/26 08:54:14;;;;;;;3.78;1.63;;;;;;;;;;5077001;28;20504;-80
2021/09/26 08:56:41;;;;;;;5.25;1.38;;;;;;;;;;5074768;28;20074;-81
2021/09/26 08:59:11;;;;;;;3.17;0.85;;;;;;;;;;5082418;28;20444;-77
2021/09/26 09:01:38;;;;;;;2.70;0.90;;;;;;;;;;5085793;28;20032;-78
2021/09/26 09:04:05;;;;;;;9.93;1.48;;;;;;;;;;5073885;28;20625;-78
2021/09/26 09:06:57;;;;;;;6.88;1.38;;;;;;;;;;5068279;28;20094;-78
2021/09/26 09:09:24;;;;;;;5.50;1.05;;;;;;;;;;5069442;28;20071;-83
2021/09/26 09:12:03;;;;;;;5.68;1.00;;;;;;;;;;5089709;28;20052;-82
2021/09/26 09:14:48;;;;;;;5.43;1.13;;;;;;;;;;5076196;28;20110;-81
2021/09/26 09:17:26;;;;;;;10.40;1.35;;;;;;;;;;5077183;28;20090;-81
2021/09/26 09:20:08;;;;;;;8.98;1.77;;;;;;;;;;5072707;28;20082;-79
2021/09/26 09:22:34;;;;;;;8.15;1.42;;;;;;;;;;5075009;28;20085;-80
2021/09/26 09:25:01;;;;;;;9.85;1.75;;;;;;;;;;5068781;28;20068;-79
2021/09/26 09:27:27;;;;;;;5.28;1.30;;;;;;;;;;5078143;28;20142;-84
2021/09/26 09:29:54;;;;;;;5.63;1.38;;;;;;;;;;5089887;28;20036;-79
2021/09/26 09:32:22;;;;;;;6.00;1.33;;;;;;;;;;5085846;28;20064;-80
2021/09/26 09:34:49;;;;;;;5.22;1.67;;;;;;;;;;5086124;28;20071;-80
2021/09/26 09:37:15;;;;;;;6.63;1.55;;;;;;;;;;5084225;28;20056;-79
2021/09/26 09:39:46;;;;;;;4.63;1.30;;;;;;;;;;5079066;28;20064;-79
2021/09/26 09:42:17;;;;;;;14.13;2.22;;;;;;;;;;5063966;28;20095;-80
2021/09/26 09:44:44;;;;;;;8.23;1.75;;;;;;;;;;5066798;28;21415;-80
2021/09/26 09:47:11;;;;;;;8.93;1.67;;;;;;;;;;5075248;28;20625;-79
2021/09/26 09:49:51;;;;;;;10.23;1.50;;;;;;;;;;5086080;28;20101;-80
2021/09/26 09:52:18;;;;;;;5.85;1.20;;;;;;;;;;5084101;28;20112;-80
2021/09/26 09:54:49;;;;;;;8.80;1.52;;;;;;;;;;5078214;28;20059;-80
2021/09/26 09:57:21;;;;;;;3.67;1.13;;;;;;;;;;5083453;28;20031;-79
2021/09/26 09:59:48;;;;;;;7.25;1.33;;;;;;;;;;5085854;28;20584;-79
2021/09/26 10:02:15;;;;;;;7.40;1.58;;;;;;;;;;5085661;28;20115;-79
2021/09/26 10:04:44;;;;;;;9.65;1.38;;;;;;;;;;5064430;28;20029;-79
2021/09/26 10:07:17;;;;;;;4.57;1.20;;;;;;;;;;5080706;28;20052;-79
2021/09/26 10:09:44;;;;;;;8.88;1.40;;;;;;;;;;5065280;28;21636;-79
2021/09/26 10:12:19;;;;;;;7.55;1.65;;;;;;;;;;5067150;28;20056;-78
2021/09/26 10:14:45;;;;;;;6.90;1.75;;;;;;;;;;5043999;28;20577;-79
2021/09/26 10:17:12;;;;;;;7.65;1.33;;;;;;;;;;5067410;28;20720;-78
2021/09/26 10:19:38;;;;;;;7.78;1.10;;;;;;;;;;5069115;28;20108;-79
2021/09/26 10:22:05;;;;;;;6.97;1.33;;;;;;;;;;5077083;28;20063;-79
2021/09/26 10:24:35;;;;;;;6.30;1.15;;;;;;;;;;5082548;28;20510;-79
2021/09/26 10:27:04;;;;;;;5.63;1.57;;;;;;;;;;5083141;28;20062;-79
2021/09/26 10:29:32;;;;;;;9.38;1.58;;;;;;;;;;5061032;28;21016;-79
2021/09/26 10:31:59;;;;;;;8.32;1.35;;;;;;;;;;5075426;28;20064;-79
2021/09/26 10:34:26;;;;;;;5.32;1.17;;;;;;;;;;5067951;28;20056;-79
2021/09/26 10:36:53;;;;;;;8.55;1.77;;;;;;;;;;5087721;28;20120;-79
2021/09/26 10:39:20;;;;;;;6.38;1.17;;;;;;;;;;5075341;28;20105;-78
2021/09/26 10:42:05;;;;;;;5.43;1.30;;;;;;;;;;5064602;28;20074;-79
2021/09/26 10:44:32;;;;;;;6.32;1.23;;;;;;;;;;5067617;28;20118;-79
2021/09/26 10:47:08;;;;;;;6.47;1.60;;;;;;;;;;5067998;28;20429;-78
2021/09/26 10:49:41;;;;;;;6.70;1.27;;;;;;;;;;5083696;28;20059;-80
2021/09/26 10:52:26;;;;;;;4.80;0.98;;;;;;;;;;5076552;28;20072;-79
2021/09/26 10:54:53;;;;;;;3.83;1.00;;;;;;;;;;5068426;28;21264;-79
2021/09/26 10:57:21;;;;;;;5.25;1.35;;;;;;;;;;5067508;28;20052;-85
2021/09/26 10:59:52;;;;;;;5.03;1.30;;;;;;;;;;5082746;28;20040;-80
2021/09/26 11:02:19;;;;;;;;;;;;;;;;;;5075441;28;20109;-79
2021/09/26 11:04:45;;;;;;;5.63;1.20;;;;;;;;;;5079770;28;19948;-80
2021/09/26 11:07:24;;;;;;;6.85;1.40;;;;;;;;;;5048765;28;20064;-80
2021/09/26 11:09:52;;;;;;;4.88;1.30;;;;;;;;;;5082465;28;20105;-79
2021/09/26 11:12:36;;;;;;;8.02;1.30;;;;;;;;;;5084619;28;20122;-79
2021/09/26 11:15:03;;;;;;;4.95;1.13;;;;;;;;;;5085976;28;20112;-77
2021/09/26 11:17:43;;;;;;;6.63;1.33;;;;;;;;;;5081968;28;20055;-78
2021/09/26 11:20:10;;;;;;;6.00;1.58;;;;;;;;;;5086029;28;20056;-79
2021/09/26 11:22:37;;;;;;;4.47;1.10;;;;;;;;;;5065251;28;20068;-79
2021/09/26 11:25:03;;;;;;;4.55;1.10;;;;;;;;;;5071392;28;20065;-79
2021/09/26 11:27:35;;;;;;;7.15;1.40;;;;;;;;;;5076283;28;20068;-79
2021/09/26 11:30:13;;;;;;;4.22;1.15;;;;;;;;;;5080130;28;20040;-79
2021/09/26 11:32:40;;;;;;;6.70;1.33;;;;;;;;;;5080152;28;20086;-78
2021/09/26 11:35:08;;;;;;;7.70;1.42;;;;;;;;;;5086375;28;20499;-78
2021/09/26 11:37:37;;;;;;;4.85;1.10;;;;;;;;;;5078575;28;20052;-81
2021/09/26 11:40:06;;;;;;;5.25;0.90;;;;;;;;;;5066486;28;20040;-82
2021/09/26 11:42:34;;;;;;;2.30;0.98;;;;;;;;;;5082853;28;20109;-80
2021/09/26 11:45:02;;;;;;;5.32;1.08;;;;;;;;;;5084861;28;20132;-80
2021/09/26 11:47:29;;;;;;;3.47;1.15;;;;;;;;;;5083583;28;20028;-80
2021/09/26 11:50:02;;;;;;;4.10;1.27;;;;;;;;;;5085842;28;20060;-83
2021/09/26 11:52:29;;;;;;;7.72;1.30;;;;;;;;;;5050836;28;20082;-88
2021/09/26 11:54:59;;;;;;;5.35;1.20;;;;;;;;;;5070220;28;20060;-88
2021/09/26 11:57:26;;;;;;;3.58;0.98;;;;;;;;;;5071732;28;20055;-88
2021/09/26 11:59:52;;;;;;;6.38;1.25;;;;;;;;;;5084997;28;20104;-89
2021/09/26 12:02:19;;;;;;;4.63;1.00;;;;;;;;;;5083571;28;20032;-90
2021/09/26 12:04:45;;;;;;;8.73;1.45;;;;;;;;;;5087138;28;20052;-89
2021/09/26 12:07:12;;;;;;;4.10;1.13;;;;;;;;;;5066630;28;20060;-89
2021/09/26 12:09:39;;;;;;;4.22;0.90;;;;;;;;;;5087734;28;20049;-89
2021/09/26 12:12:11;;;;;;;5.40;0.90;;;;;;;;;;5086133;28;20475;-88
2021/09/26 12:14:38;;;;;;;5.05;0.95;;;;;;;;;;5087254;28;20048;-89
2021/09/26 12:17:06;;;;;;;7.13;1.40;;;;;;;;;;5089111;28;20093;-88
2021/09/26 12:19:33;;;;;;;4.18;0.95;;;;;;;;;;5083063;28;20053;-89
2021/09/26 12:22:01;;;;;;;4.47;1.13;;;;;;;;;;5068605;28;20104;-89
2021/09/26 12:24:31;;;;;;;5.65;1.48;;;;;;;;;;5081617;28;20032;-89
2021/09/26 12:26:57;;;;;;;2.63;1.25;;;;;;;;;;5088565;28;20476;-89
2021/09/26 12:29:25;;;;;;;2.60;0.88;;;;;;;;;;5071424;28;20460;-89
2021/09/26 12:31:56;;;;;;;5.10;1.25;;;;;;;;;;5092094;28;20456;-88
2021/09/26 12:34:36;;;;;;;3.47;1.00;;;;;;;;;;5094414;28;20036;-88
2021/09/26 12:37:03;;;;;;;4.50;1.15;;;;;;;;;;5092655;28;20028;-88
2021/09/26 12:39:35;;;;;;;3.63;0.80;;;;;;;;;;5070454;28;20036;-88
2021/09/26 12:42:02;;;;;;;2.78;1.15;;;;;;;;;;5071289;28;20030;-88
2021/09/26 12:44:33;;;;;;;5.55;1.23;;;;;;;;;;5086360;28;20515;-89
2021/09/26 12:47:00;;;;;;;;;;;;;;;;;;5087026;28;20044;-90
2021/09/26 12:49:26;;;;;;;3.22;0.85;;;;;;;;;;5086424;28;20014;-91
2021/09/26 12:51:55;;;;;;;3.58;1.10;;;;;;;;;;5089055;28;20059;-89
2021/09/26 12:54:23;;;;;;;1.85;0.77;;;;;;;;;;5067982;28;20114;-89
2021/09/26 12:56:49;;;;;;;5.63;1.40;;;;;;;;;;5073840;28;20041;-89
2021/09/26 12:59:24;;;;;;;4.05;1.00;;;;;;;;;;5092378;28;20560;-88
2021/09/26 13:02:09;;;;;;;4.15;1.02;;;;;;;;;;5078008;28;20148;-89
2021/09/26 13:04:36;;;;;;;3.58;1.00;;;;;;;;;;5062225;28;20086;-88
2021/09/26 13:07:04;;;;;;;3.67;1.02;;;;;;;;;;5090979;28;20629;-89
2021/09/26 13:09:32;;;;;;;4.15;1.20;;;;;;;;;;5072556;28;20036;-88
2021/09/26 13:12:18;;;;;;;3.88;1.73;;;;;;;;;;5085967;28;20081;-91
2021/09/26 13:14:44;;;;;;;4.13;1.00;;;;;;;;;;5086430;28;20032;-89
2021/09/26 13:17:13;;;;;;;3.53;1.15;;;;;;;;;;5069520;28;20052;-88
2021/09/26 13:19:41;;;;;;;7.93;1.50;;;;;;;;;;5085437;28;20491;-88
2021/09/26 13:22:17;;;;;;;3.88;1.25;;;;;;;;;;5088667;28;20167;-89
2021/09/26 13:24:49;;;;;;;3.80;0.90;;;;;;;;;;5085539;28;20349;-88
2021/09/26 13:27:17;;;;;;;3.80;1.00;;;;;;;;;;5069182;28;20028;-88
2021/09/26 13:29:44;;;;;;;1.77;0.95;;;;;;;;;;5075696;28;20270;-88
2021/09/26 13:32:20;;;;;;;4.90;0.90;;;;;;;;;;5084682;28;20484;-89
2021/09/26 13:34:55;;;;;;;3.47;1.00;;;;;;;;;;5069105;28;20677;-89
2021/09/26 13:37:22;;;;;;;5.05;1.10;;;;;;;;;;5080894;28;20068;-89
2021/09/26 13:39:48;;;;;;;4.38;1.20;;;;;;;;;;5083091;28;20109;-88
2021/09/26 13:42:18;;;;;;;3.13;1.05;;;;;;;;;;5057276;28;20032;-89
2021/09/26 13:44:44;;;;;;;3.17;1.00;;;;;;;;;;5084471;28;20304;-88
2021/09/26 13:47:12;;;;;;;4.15;1.35;;;;;;;;;;5071689;28;20059;-90
2021/09/26 13:49:38;;;;;;;2.25;0.82;;;;;;;;;;5059170;28;20067;-90
2021/09/26 13:52:05;;;;;;;2.65;0.90;;;;;;;;;;5086707;28;20052;-88
2021/09/26 13:54:32;;;;;;;2.33;0.90;;;;;;;;;;5063834;28;20110;-88
2021/09/26 13:56:59;;;;;;;4.10;1.00;;;;;;;;;;5067154;28;20041;-90
2021/09/26 13:59:26;;;;;;;3.42;0.80;;;;;;;;;;5064179;28;20060;-89
2021/09/26 14:01:52;;;;;;;3.53;0.88;;;;;;;;;;5064021;28;20100;-88
2021/09/26 14:04:19;;;;;;;3.33;0.90;;;;;;;;;;5084181;28;20068;-89
2021/09/26 14:06:47;;;;;;;2.92;0.77;;;;;;;;;;5071653;28;20081;-89
2021/09/26 14:09:13;;;;;;;4.63;1.08;;;;;;;;;;5086944;28;20072;-89
2021/09/26 14:11:40;;;;;;;3.38;0.80;;;;;;;;;;5048731;28;20583;-89
2021/09/26 14:14:07;;;;;;;4.95;1.27;;;;;;;;;;5070304;28;20523;-90
2021/09/26 14:16:34;;;;;;;3.65;0.88;;;;;;;;;;5051236;28;20455;-88
2021/09/26 14:19:01;;;;;;;4.10;0.95;;;;;;;;;;5064463;28;20065;-89
2021/09/26 14:21:28;;;;;;;3.45;1.00;;;;;;;;;;5075327;28;20063;-88
2021/09/26 14:23:55;;;;;;;3.03;1.15;;;;;;;;;;5051330;28;20040;-89
2021/09/26 14:26:22;;;;;;;4.13;1.00;;;;;;;;;;5069846;28;20515;-88
2021/09/26 14:28:48;;;;;;;2.83;0.88;;;;;;;;;;5065572;28;20068;-89
2021/09/26 14:31:16;;;;;;;4.32;1.02;;;;;;;;;;5066859;28;20507;-89
2021/09/26 14:33:44;;;;;;;2.47;1.10;;;;;;;;;;5075704;28;21330;-89
2021/09/26 14:36:11;;;;;;;3.28;0.90;;;;;;;;;;5057078;28;20093;-89
2021/09/26 14:38:39;;;;;;;2.67;0.80;;;;;;;;;;5067693;28;20062;-89
2021/09/26 14:41:05;;;;;;;3.92;0.70;;;;;;;;;;5069804;28;20067;-90
2021/09/26 14:43:32;;;;;;;3.00;1.00;;;;;;;;;;5050026;28;20032;-90
2021/09/26 14:45:59;;;;;;;2.13;0.80;;;;;;;;;;5083589;28;20072;-90
2021/09/26 14:48:26;;;;;;;1.70;0.73;;;;;;;;;;5070045;28;20125;-89